sensor_id;sensor_type;location;lat;lon;timestamp;pressure;altitude;pressure_sealevel;temperature;humidity
53635;BME280;39542;-34.932;138.594;2023-05-18T00:00:30;102203.94;;;15.64;56.37
53635;BME280;39542;-34.932;138.594;2023-05-18T00:01:04;102205.83;;;15.64;56.39
53635;BME280;39542;-34.932;138.594;2023-05-18T00:01:39;102205.75;;;15.64;56.39
53635;BME280;39542;-34.932;138.594;2023-05-18T00:02:13;102205.97;;;15.63;56.33
53635;BME280;39542;-34.932;138.594;2023-05-18T00:02:47;102208.59;;;15.64;56.31
53635;BME280;39542;-34.932;138.594;2023-05-18T00:03:21;102209.48;;;15.65;56.42
53635;BME280;39542;-34.932;138.594;2023-05-18T00:03:55;102208.49;;;15.64;56.37
53635;BME280;39542;-34.932;138.594;2023-05-18T00:04:30;102208.78;;;15.65;56.34
53635;BME280;39542;-34.932;138.594;2023-05-18T00:05:04;102208.26;;;15.64;56.39
53635;BME280;39542;-34.932;138.594;2023-05-18T00:05:38;102208.00;;;15.64;56.50
53635;BME280;39542;-34.932;138.594;2023-05-18T00:06:13;102208.96;;;15.65;56.53
53635;BME280;39542;-34.932;138.594;2023-05-18T00:06:47;102210.34;;;15.65;56.51
53635;BME280;39542;-34.932;138.594;2023-05-18T00:07:21;102210.25;;;15.66;56.46
53635;BME280;39542;-34.932;138.594;2023-05-18T00:07:55;102211.22;;;15.65;56.69
53635;BME280;39542;-34.932;138.594;2023-05-18T00:08:29;102212.64;;;15.65;56.60
53635;BME280;39542;-34.932;138.594;2023-05-18T00:09:03;102212.56;;;15.66;56.61
53635;BME280;39542;-34.932;138.594;2023-05-18T00:09:38;102212.06;;;15.66;56.53
53635;BME280;39542;-34.932;138.594;2023-05-18T00:10:12;102214.18;;;15.69;56.38
53635;BME280;39542;-34.932;138.594;2023-05-18T00:10:47;102214.84;;;15.69;56.37
53635;BME280;39542;-34.932;138.594;2023-05-18T00:11:21;102212.98;;;15.69;56.39
53635;BME280;39542;-34.932;138.594;2023-05-18T00:11:55;102213.68;;;15.69;56.54
53635;BME280;39542;-34.932;138.594;2023-05-18T00:12:30;102216.23;;;15.69;56.44
53635;BME280;39542;-34.932;138.594;2023-05-18T00:13:04;102215.20;;;15.69;56.70
53635;BME280;39542;-34.932;138.594;2023-05-18T00:13:38;102215.79;;;15.70;56.58
53635;BME280;39542;-34.932;138.594;2023-05-18T00:14:12;102216.94;;;15.69;56.61
53635;BME280;39542;-34.932;138.594;2023-05-18T00:14:47;102217.14;;;15.69;56.79
53635;BME280;39542;-34.932;138.594;2023-05-18T00:15:21;102218.74;;;15.72;56.58
53635;BME280;39542;-34.932;138.594;2023-05-18T00:15:55;102218.26;;;15.72;56.54
53635;BME280;39542;-34.932;138.594;2023-05-18T00:16:29;102217.92;;;15.72;56.80
53635;BME280;39542;-34.932;138.594;2023-05-18T00:17:04;102218.34;;;15.69;56.75
53635;BME280;39542;-34.932;138.594;2023-05-18T00:17:38;102218.80;;;15.69;56.74
53635;BME280;39542;-34.932;138.594;2023-05-18T00:18:12;102218.21;;;15.71;56.54
53635;BME280;39542;-34.932;138.594;2023-05-18T00:18:47;102215.35;;;15.70;56.74
53635;BME280;39542;-34.932;138.594;2023-05-18T00:19:22;102218.92;;;15.71;56.75
53635;BME280;39542;-34.932;138.594;2023-05-18T00:19:56;102217.57;;;15.73;56.68
53635;BME280;39542;-34.932;138.594;2023-05-18T00:20:30;102218.65;;;15.74;56.60
53635;BME280;39542;-34.932;138.594;2023-05-18T00:21:05;102215.86;;;15.71;56.72
53635;BME280;39542;-34.932;138.594;2023-05-18T00:21:40;102217.55;;;15.71;56.77
53635;BME280;39542;-34.932;138.594;2023-05-18T00:22:14;102216.87;;;15.70;56.76
53635;BME280;39542;-34.932;138.594;2023-05-18T00:22:48;102218.24;;;15.70;56.88
53635;BME280;39542;-34.932;138.594;2023-05-18T00:23:22;102219.53;;;15.72;56.77
53635;BME280;39542;-34.932;138.594;2023-05-18T00:23:58;102219.18;;;15.73;56.72
53635;BME280;39542;-34.932;138.594;2023-05-18T00:24:32;102218.50;;;15.69;56.80
53635;BME280;39542;-34.932;138.594;2023-05-18T00:25:07;102218.63;;;15.71;56.85
53635;BME280;39542;-34.932;138.594;2023-05-18T00:25:41;102219.54;;;15.71;56.82
53635;BME280;39542;-34.932;138.594;2023-05-18T00:26:15;102219.75;;;15.72;56.88
53635;BME280;39542;-34.932;138.594;2023-05-18T00:26:50;102218.45;;;15.71;56.88
53635;BME280;39542;-34.932;138.594;2023-05-18T00:27:24;102219.04;;;15.71;56.87
53635;BME280;39542;-34.932;138.594;2023-05-18T00:27:58;102219.07;;;15.71;56.85
53635;BME280;39542;-34.932;138.594;2023-05-18T00:28:32;102219.29;;;15.71;56.88
53635;BME280;39542;-34.932;138.594;2023-05-18T00:29:07;102218.11;;;15.69;56.91
53635;BME280;39542;-34.932;138.594;2023-05-18T00:29:41;102219.24;;;15.72;56.86
53635;BME280;39542;-34.932;138.594;2023-05-18T00:30:16;102216.37;;;15.73;56.81
53635;BME280;39542;-34.932;138.594;2023-05-18T00:30:50;102218.84;;;15.72;56.86
53635;BME280;39542;-34.932;138.594;2023-05-18T00:31:25;102218.46;;;15.74;56.83
53635;BME280;39542;-34.932;138.594;2023-05-18T00:31:59;102217.65;;;15.78;56.73
53635;BME280;39542;-34.932;138.594;2023-05-18T00:32:34;102217.38;;;15.80;56.68
53635;BME280;39542;-34.932;138.594;2023-05-18T00:33:08;102218.44;;;15.80;56.73
53635;BME280;39542;-34.932;138.594;2023-05-18T00:33:42;102216.15;;;15.81;56.74
53635;BME280;39542;-34.932;138.594;2023-05-18T00:34:16;102215.00;;;15.82;56.70
53635;BME280;39542;-34.932;138.594;2023-05-18T00:34:51;102216.47;;;15.83;56.68
53635;BME280;39542;-34.932;138.594;2023-05-18T00:35:25;102215.76;;;15.87;56.58
53635;BME280;39542;-34.932;138.594;2023-05-18T00:35:59;102215.75;;;15.86;56.60
53635;BME280;39542;-34.932;138.594;2023-05-18T00:36:34;102217.05;;;15.88;56.59
53635;BME280;39542;-34.932;138.594;2023-05-18T00:37:08;102214.70;;;15.87;56.57
53635;BME280;39542;-34.932;138.594;2023-05-18T00:37:43;102213.92;;;15.86;56.57
53635;BME280;39542;-34.932;138.594;2023-05-18T00:38:17;102211.72;;;15.86;56.55
53635;BME280;39542;-34.932;138.594;2023-05-18T00:38:51;102212.29;;;15.84;56.57
53635;BME280;39542;-34.932;138.594;2023-05-18T00:39:26;102213.31;;;15.85;56.58
53635;BME280;39542;-34.932;138.594;2023-05-18T00:40:00;102210.45;;;15.84;56.61
53635;BME280;39542;-34.932;138.594;2023-05-18T00:40:34;102208.62;;;15.86;56.59
53635;BME280;39542;-34.932;138.594;2023-05-18T00:41:09;102209.05;;;15.88;56.60
53635;BME280;39542;-34.932;138.594;2023-05-18T00:41:43;102206.99;;;15.86;56.59
53635;BME280;39542;-34.932;138.594;2023-05-18T00:42:17;102206.22;;;15.87;56.59
53635;BME280;39542;-34.932;138.594;2023-05-18T00:42:51;102210.05;;;15.88;56.57
53635;BME280;39542;-34.932;138.594;2023-05-18T00:43:25;102208.12;;;15.86;56.65
53635;BME280;39542;-34.932;138.594;2023-05-18T00:44:00;102207.55;;;15.88;56.59
53635;BME280;39542;-34.932;138.594;2023-05-18T00:44:34;102210.31;;;15.86;56.65
53635;BME280;39542;-34.932;138.594;2023-05-18T00:45:09;102210.04;;;15.90;56.56
53635;BME280;39542;-34.932;138.594;2023-05-18T00:45:44;102209.37;;;15.90;56.53
53635;BME280;39542;-34.932;138.594;2023-05-18T00:46:18;102209.86;;;15.92;56.47
53635;BME280;39542;-34.932;138.594;2023-05-18T00:46:52;102210.62;;;15.91;56.51
53635;BME280;39542;-34.932;138.594;2023-05-18T00:47:26;102211.15;;;15.90;56.56
53635;BME280;39542;-34.932;138.594;2023-05-18T00:48:00;102212.45;;;15.90;56.57
53635;BME280;39542;-34.932;138.594;2023-05-18T00:48:35;102211.92;;;15.91;56.56
53635;BME280;39542;-34.932;138.594;2023-05-18T00:49:09;102210.53;;;15.89;56.54
53635;BME280;39542;-34.932;138.594;2023-05-18T00:49:44;102213.21;;;15.89;56.57
53635;BME280;39542;-34.932;138.594;2023-05-18T00:50:19;102212.93;;;15.92;56.51
53635;BME280;39542;-34.932;138.594;2023-05-18T00:50:53;102213.04;;;15.89;56.55
53635;BME280;39542;-34.932;138.594;2023-05-18T00:51:28;102212.95;;;15.89;56.57
53635;BME280;39542;-34.932;138.594;2023-05-18T00:52:03;102213.42;;;15.90;56.52
53635;BME280;39542;-34.932;138.594;2023-05-18T00:52:38;102211.86;;;15.92;56.51
53635;BME280;39542;-34.932;138.594;2023-05-18T00:53:12;102213.26;;;15.92;56.45
53635;BME280;39542;-34.932;138.594;2023-05-18T00:53:46;102212.93;;;15.93;56.48
53635;BME280;39542;-34.932;138.594;2023-05-18T00:54:21;102214.08;;;15.94;56.40
53635;BME280;39542;-34.932;138.594;2023-05-18T00:54:55;102212.55;;;15.92;56.46
53635;BME280;39542;-34.932;138.594;2023-05-18T00:55:30;102209.49;;;15.91;56.52
53635;BME280;39542;-34.932;138.594;2023-05-18T00:56:05;102210.57;;;15.93;56.47
53635;BME280;39542;-34.932;138.594;2023-05-18T00:56:41;102212.71;;;15.92;56.53
53635;BME280;39542;-34.932;138.594;2023-05-18T00:57:15;102210.25;;;15.90;56.54
53635;BME280;39542;-34.932;138.594;2023-05-18T00:57:49;102210.80;;;15.91;56.54
53635;BME280;39542;-34.932;138.594;2023-05-18T00:58:24;102213.59;;;15.91;56.53
53635;BME280;39542;-34.932;138.594;2023-05-18T00:58:58;102211.92;;;15.93;56.50
53635;BME280;39542;-34.932;138.594;2023-05-18T00:59:33;102210.58;;;15.93;56.49
53635;BME280;39542;-34.932;138.594;2023-05-18T01:00:11;102211.01;;;15.94;56.51
53635;BME280;39542;-34.932;138.594;2023-05-18T01:00:46;102208.74;;;15.94;56.52
53635;BME280;39542;-34.932;138.594;2023-05-18T01:01:22;102212.11;;;15.96;56.51
53635;BME280;39542;-34.932;138.594;2023-05-18T01:01:59;102211.28;;;15.95;56.50
53635;BME280;39542;-34.932;138.594;2023-05-18T01:02:34;102210.31;;;15.95;56.53
53635;BME280;39542;-34.932;138.594;2023-05-18T01:03:08;102210.70;;;15.95;56.51
53635;BME280;39542;-34.932;138.594;2023-05-18T01:03:42;102209.58;;;15.95;56.49
53635;BME280;39542;-34.932;138.594;2023-05-18T01:04:16;102210.15;;;15.89;56.63
53635;BME280;39542;-34.932;138.594;2023-05-18T01:04:51;102210.73;;;15.93;56.52
53635;BME280;39542;-34.932;138.594;2023-05-18T01:05:25;102209.81;;;15.95;56.47
53635;BME280;39542;-34.932;138.594;2023-05-18T01:05:59;102208.95;;;15.94;56.55
53635;BME280;39542;-34.932;138.594;2023-05-18T01:06:33;102207.52;;;15.97;56.44
53635;BME280;39542;-34.932;138.594;2023-05-18T01:07:08;102203.88;;;15.94;56.58
53635;BME280;39542;-34.932;138.594;2023-05-18T01:07:43;102207.31;;;16.01;56.43
53635;BME280;39542;-34.932;138.594;2023-05-18T01:08:17;102207.04;;;16.02;56.41
53635;BME280;39542;-34.932;138.594;2023-05-18T01:08:52;102203.39;;;16.00;56.42
53635;BME280;39542;-34.932;138.594;2023-05-18T01:09:27;102203.75;;;15.99;56.40
53635;BME280;39542;-34.932;138.594;2023-05-18T01:10:01;102204.60;;;16.01;56.35
53635;BME280;39542;-34.932;138.594;2023-05-18T01:10:37;102204.29;;;16.03;56.34
53635;BME280;39542;-34.932;138.594;2023-05-18T01:11:31;102202.66;;;16.03;56.31
53635;BME280;39542;-34.932;138.594;2023-05-18T01:12:15;102202.11;;;16.01;56.33
53635;BME280;39542;-34.932;138.594;2023-05-18T01:12:55;102202.73;;;16.06;56.22
53635;BME280;39542;-34.932;138.594;2023-05-18T01:13:34;102201.26;;;16.05;56.30
53635;BME280;39542;-34.932;138.594;2023-05-18T01:14:15;102204.74;;;16.00;56.34
53635;BME280;39542;-34.932;138.594;2023-05-18T01:14:56;102205.63;;;16.00;56.33
53635;BME280;39542;-34.932;138.594;2023-05-18T01:15:36;102205.78;;;15.95;56.49
53635;BME280;39542;-34.932;138.594;2023-05-18T01:16:11;102207.41;;;16.01;56.34
53635;BME280;39542;-34.932;138.594;2023-05-18T01:16:55;102206.19;;;16.00;56.33
53635;BME280;39542;-34.932;138.594;2023-05-18T01:17:41;102206.18;;;16.02;56.37
53635;BME280;39542;-34.932;138.594;2023-05-18T01:18:22;102204.64;;;15.97;56.40
53635;BME280;39542;-34.932;138.594;2023-05-18T01:19:08;102207.81;;;16.00;56.37
53635;BME280;39542;-34.932;138.594;2023-05-18T01:20:10;102205.91;;;16.03;56.33
53635;BME280;39542;-34.932;138.594;2023-05-18T01:20:49;102204.76;;;15.97;56.43
53635;BME280;39542;-34.932;138.594;2023-05-18T01:21:43;102206.55;;;16.01;56.35
53635;BME280;39542;-34.932;138.594;2023-05-18T01:22:36;102204.18;;;16.02;56.33
53635;BME280;39542;-34.932;138.594;2023-05-18T01:23:28;102205.66;;;16.00;56.42
53635;BME280;39542;-34.932;138.594;2023-05-18T01:24:22;102206.29;;;16.02;56.32
53635;BME280;39542;-34.932;138.594;2023-05-18T01:25:02;102203.29;;;15.97;56.42
53635;BME280;39542;-34.932;138.594;2023-05-18T01:25:49;102204.33;;;15.98;56.38
53635;BME280;39542;-34.932;138.594;2023-05-18T01:26:24;102206.05;;;15.98;56.45
53635;BME280;39542;-34.932;138.594;2023-05-18T01:27:01;102207.23;;;15.98;56.44
53635;BME280;39542;-34.932;138.594;2023-05-18T01:27:38;102207.02;;;16.00;56.41
53635;BME280;39542;-34.932;138.594;2023-05-18T01:28:15;102206.20;;;16.00;56.39
53635;BME280;39542;-34.932;138.594;2023-05-18T01:28:51;102206.07;;;16.00;56.41
53635;BME280;39542;-34.932;138.594;2023-05-18T01:29:27;102206.34;;;15.98;56.49
53635;BME280;39542;-34.932;138.594;2023-05-18T01:30:02;102204.16;;;16.01;56.40
53635;BME280;39542;-34.932;138.594;2023-05-18T01:30:40;102205.74;;;16.02;56.39
53635;BME280;39542;-34.932;138.594;2023-05-18T01:31:15;102204.20;;;16.05;56.34
53635;BME280;39542;-34.932;138.594;2023-05-18T01:31:50;102199.73;;;16.03;56.38
53635;BME280;39542;-34.932;138.594;2023-05-18T01:32:24;102198.62;;;16.02;56.35
53635;BME280;39542;-34.932;138.594;2023-05-18T01:32:58;102201.39;;;16.01;56.37
53635;BME280;39542;-34.932;138.594;2023-05-18T01:33:33;102197.24;;;16.06;56.34
53635;BME280;39542;-34.932;138.594;2023-05-18T01:34:07;102195.92;;;16.05;56.30
53635;BME280;39542;-34.932;138.594;2023-05-18T01:34:41;102195.29;;;16.06;56.31
53635;BME280;39542;-34.932;138.594;2023-05-18T01:35:15;102191.79;;;16.07;56.27
53635;BME280;39542;-34.932;138.594;2023-05-18T01:35:50;102189.86;;;16.09;56.26
53635;BME280;39542;-34.932;138.594;2023-05-18T01:36:24;102190.48;;;16.08;56.29
53635;BME280;39542;-34.932;138.594;2023-05-18T01:36:58;102191.16;;;16.04;56.37
53635;BME280;39542;-34.932;138.594;2023-05-18T01:37:33;102188.66;;;16.06;56.39
53635;BME280;39542;-34.932;138.594;2023-05-18T01:38:07;102186.70;;;15.99;56.45
53635;BME280;39542;-34.932;138.594;2023-05-18T01:38:41;102189.80;;;16.00;56.43
53635;BME280;39542;-34.932;138.594;2023-05-18T01:39:16;102185.08;;;16.02;56.41
53635;BME280;39542;-34.932;138.594;2023-05-18T01:39:50;102184.09;;;16.04;56.37
53635;BME280;39542;-34.932;138.594;2023-05-18T01:40:26;102182.90;;;16.04;56.38
53635;BME280;39542;-34.932;138.594;2023-05-18T01:41:15;102182.23;;;16.05;56.30
53635;BME280;39542;-34.932;138.594;2023-05-18T01:41:57;102181.43;;;16.05;56.35
53635;BME280;39542;-34.932;138.594;2023-05-18T01:42:36;102180.16;;;16.08;56.27
53635;BME280;39542;-34.932;138.594;2023-05-18T01:43:17;102181.30;;;16.06;56.34
53635;BME280;39542;-34.932;138.594;2023-05-18T01:44:00;102180.98;;;16.00;56.45
53635;BME280;39542;-34.932;138.594;2023-05-18T01:44:40;102181.56;;;16.05;56.37
53635;BME280;39542;-34.932;138.594;2023-05-18T01:45:21;102180.78;;;16.03;56.41
53635;BME280;39542;-34.932;138.594;2023-05-18T01:46:04;102180.26;;;16.05;56.41
53635;BME280;39542;-34.932;138.594;2023-05-18T01:46:48;102181.36;;;16.05;56.40
53635;BME280;39542;-34.932;138.594;2023-05-18T01:47:26;102177.01;;;16.02;56.39
53635;BME280;39542;-34.932;138.594;2023-05-18T01:48:02;102177.61;;;16.05;56.38
53635;BME280;39542;-34.932;138.594;2023-05-18T01:48:38;102176.86;;;16.01;56.47
53635;BME280;39542;-34.932;138.594;2023-05-18T01:49:22;102174.86;;;16.03;56.45
53635;BME280;39542;-34.932;138.594;2023-05-18T01:50:04;102176.73;;;16.08;56.29
53635;BME280;39542;-34.932;138.594;2023-05-18T01:50:44;102176.16;;;16.07;56.37
53635;BME280;39542;-34.932;138.594;2023-05-18T01:51:21;102175.80;;;16.06;56.37
53635;BME280;39542;-34.932;138.594;2023-05-18T01:52:05;102174.22;;;16.05;56.39
53635;BME280;39542;-34.932;138.594;2023-05-18T01:52:41;102172.51;;;16.06;56.37
53635;BME280;39542;-34.932;138.594;2023-05-18T01:53:22;102172.79;;;16.08;56.34
53635;BME280;39542;-34.932;138.594;2023-05-18T01:54:01;102169.79;;;16.08;56.37
53635;BME280;39542;-34.932;138.594;2023-05-18T01:54:37;102169.29;;;16.07;56.39
53635;BME280;39542;-34.932;138.594;2023-05-18T01:55:16;102170.28;;;16.03;56.46
53635;BME280;39542;-34.932;138.594;2023-05-18T01:55:51;102169.03;;;16.05;56.44
53635;BME280;39542;-34.932;138.594;2023-05-18T01:56:28;102168.81;;;16.05;56.47
53635;BME280;39542;-34.932;138.594;2023-05-18T01:57:05;102167.85;;;16.03;56.54
53635;BME280;39542;-34.932;138.594;2023-05-18T01:57:43;102168.21;;;16.02;56.52
53635;BME280;39542;-34.932;138.594;2023-05-18T01:58:17;102167.65;;;16.03;56.52
53635;BME280;39542;-34.932;138.594;2023-05-18T01:58:53;102167.49;;;16.04;56.52
53635;BME280;39542;-34.932;138.594;2023-05-18T01:59:27;102169.27;;;16.07;56.47
53635;BME280;39542;-34.932;138.594;2023-05-18T02:00:03;102168.88;;;16.07;56.52
53635;BME280;39542;-34.932;138.594;2023-05-18T02:00:41;102169.27;;;16.00;56.66
53635;BME280;39542;-34.932;138.594;2023-05-18T02:01:16;102167.80;;;16.02;56.57
53635;BME280;39542;-34.932;138.594;2023-05-18T02:01:50;102166.23;;;16.05;56.52
53635;BME280;39542;-34.932;138.594;2023-05-18T02:02:25;102167.88;;;16.07;56.50
53635;BME280;39542;-34.932;138.594;2023-05-18T02:02:59;102162.77;;;16.06;56.59
53635;BME280;39542;-34.932;138.594;2023-05-18T02:03:33;102163.58;;;16.03;56.64
53635;BME280;39542;-34.932;138.594;2023-05-18T02:04:09;102160.43;;;16.02;56.62
53635;BME280;39542;-34.932;138.594;2023-05-18T02:04:43;102161.40;;;16.02;56.63
53635;BME280;39542;-34.932;138.594;2023-05-18T02:05:18;102160.14;;;16.03;56.59
53635;BME280;39542;-34.932;138.594;2023-05-18T02:05:52;102158.85;;;16.03;56.60
53635;BME280;39542;-34.932;138.594;2023-05-18T02:06:26;102158.62;;;16.06;56.56
53635;BME280;39542;-34.932;138.594;2023-05-18T02:07:00;102157.50;;;16.09;56.48
53635;BME280;39542;-34.932;138.594;2023-05-18T02:07:34;102156.89;;;16.08;56.54
53635;BME280;39542;-34.932;138.594;2023-05-18T02:08:09;102155.19;;;16.08;56.51
53635;BME280;39542;-34.932;138.594;2023-05-18T02:08:43;102154.94;;;16.07;56.55
53635;BME280;39542;-34.932;138.594;2023-05-18T02:09:17;102155.73;;;16.06;56.52
53635;BME280;39542;-34.932;138.594;2023-05-18T02:09:51;102156.24;;;16.04;56.61
53635;BME280;39542;-34.932;138.594;2023-05-18T02:10:25;102154.49;;;16.04;56.63
53635;BME280;39542;-34.932;138.594;2023-05-18T02:11:00;102153.03;;;16.04;56.61
53635;BME280;39542;-34.932;138.594;2023-05-18T02:11:35;102153.76;;;16.07;56.53
53635;BME280;39542;-34.932;138.594;2023-05-18T02:12:09;102151.42;;;16.09;56.53
53635;BME280;39542;-34.932;138.594;2023-05-18T02:12:43;102149.12;;;16.05;56.58
53635;BME280;39542;-34.932;138.594;2023-05-18T02:13:17;102146.42;;;16.06;56.60
53635;BME280;39542;-34.932;138.594;2023-05-18T02:13:52;102148.35;;;16.08;56.54
53635;BME280;39542;-34.932;138.594;2023-05-18T02:14:26;102145.72;;;16.08;56.56
53635;BME280;39542;-34.932;138.594;2023-05-18T02:15:00;102145.79;;;16.04;56.64
53635;BME280;39542;-34.932;138.594;2023-05-18T02:15:35;102144.82;;;16.02;56.67
53635;BME280;39542;-34.932;138.594;2023-05-18T02:16:10;102145.38;;;16.06;56.63
53635;BME280;39542;-34.932;138.594;2023-05-18T02:16:44;102141.48;;;16.05;56.60
53635;BME280;39542;-34.932;138.594;2023-05-18T02:17:19;102141.95;;;16.06;56.58
53635;BME280;39542;-34.932;138.594;2023-05-18T02:17:53;102140.44;;;16.08;56.58
53635;BME280;39542;-34.932;138.594;2023-05-18T02:18:27;102139.46;;;16.09;56.55
53635;BME280;39542;-34.932;138.594;2023-05-18T02:19:01;102137.35;;;16.05;56.60
53635;BME280;39542;-34.932;138.594;2023-05-18T02:19:35;102136.37;;;16.05;56.66
53635;BME280;39542;-34.932;138.594;2023-05-18T02:20:10;102135.69;;;16.04;56.62
53635;BME280;39542;-34.932;138.594;2023-05-18T02:20:45;102134.37;;;16.05;56.61
53635;BME280;39542;-34.932;138.594;2023-05-18T02:21:19;102135.65;;;16.06;56.65
53635;BME280;39542;-34.932;138.594;2023-05-18T02:21:53;102132.98;;;16.04;56.70
53635;BME280;39542;-34.932;138.594;2023-05-18T02:22:27;102133.30;;;16.03;56.68
53635;BME280;39542;-34.932;138.594;2023-05-18T02:23:02;102130.56;;;16.08;56.59
53635;BME280;39542;-34.932;138.594;2023-05-18T02:23:36;102130.88;;;16.08;56.61
53635;BME280;39542;-34.932;138.594;2023-05-18T02:24:11;102130.20;;;16.07;56.67
53635;BME280;39542;-34.932;138.594;2023-05-18T02:24:45;102129.30;;;16.08;56.61
53635;BME280;39542;-34.932;138.594;2023-05-18T02:25:19;102128.13;;;16.08;56.59
53635;BME280;39542;-34.932;138.594;2023-05-18T02:25:54;102128.17;;;16.10;56.58
53635;BME280;39542;-34.932;138.594;2023-05-18T02:26:28;102126.12;;;16.10;56.57
53635;BME280;39542;-34.932;138.594;2023-05-18T02:27:03;102126.57;;;16.07;56.61
53635;BME280;39542;-34.932;138.594;2023-05-18T02:27:38;102125.54;;;16.06;56.63
53635;BME280;39542;-34.932;138.594;2023-05-18T02:28:12;102123.71;;;16.06;56.64
53635;BME280;39542;-34.932;138.594;2023-05-18T02:28:46;102124.39;;;16.06;56.60
53635;BME280;39542;-34.932;138.594;2023-05-18T02:29:20;102123.62;;;16.08;56.59
53635;BME280;39542;-34.932;138.594;2023-05-18T02:29:55;102124.40;;;16.10;56.56
53635;BME280;39542;-34.932;138.594;2023-05-18T02:30:30;102124.48;;;16.08;56.59
53635;BME280;39542;-34.932;138.594;2023-05-18T02:31:08;102124.92;;;16.07;56.64
53635;BME280;39542;-34.932;138.594;2023-05-18T02:31:44;102122.40;;;16.09;56.59
53635;BME280;39542;-34.932;138.594;2023-05-18T02:32:18;102120.08;;;16.07;56.62
53635;BME280;39542;-34.932;138.594;2023-05-18T02:32:52;102118.19;;;16.08;56.61
53635;BME280;39542;-34.932;138.594;2023-05-18T02:33:26;102117.95;;;16.05;56.65
53635;BME280;39542;-34.932;138.594;2023-05-18T02:34:00;102114.83;;;16.03;56.72
53635;BME280;39542;-34.932;138.594;2023-05-18T02:34:35;102114.15;;;16.05;56.71
53635;BME280;39542;-34.932;138.594;2023-05-18T02:35:09;102112.04;;;16.03;56.69
53635;BME280;39542;-34.932;138.594;2023-05-18T02:35:44;102115.05;;;16.05;56.69
53635;BME280;39542;-34.932;138.594;2023-05-18T02:36:18;102114.34;;;16.02;56.77
53635;BME280;39542;-34.932;138.594;2023-05-18T02:36:52;102110.57;;;16.04;56.73
53635;BME280;39542;-34.932;138.594;2023-05-18T02:37:26;102110.11;;;16.07;56.66
53635;BME280;39542;-34.932;138.594;2023-05-18T02:38:01;102109.32;;;16.05;56.68
53635;BME280;39542;-34.932;138.594;2023-05-18T02:38:37;102110.10;;;16.01;56.80
53635;BME280;39542;-34.932;138.594;2023-05-18T02:39:11;102107.80;;;16.03;56.81
53635;BME280;39542;-34.932;138.594;2023-05-18T02:39:45;102106.89;;;16.01;56.80
53635;BME280;39542;-34.932;138.594;2023-05-18T02:40:19;102106.27;;;16.02;56.80
53635;BME280;39542;-34.932;138.594;2023-05-18T02:40:53;102109.42;;;16.04;56.80
53635;BME280;39542;-34.932;138.594;2023-05-18T02:41:28;102102.19;;;16.05;56.79
53635;BME280;39542;-34.932;138.594;2023-05-18T02:42:02;102099.00;;;16.09;56.73
53635;BME280;39542;-34.932;138.594;2023-05-18T02:42:36;102099.28;;;16.11;56.67
53635;BME280;39542;-34.932;138.594;2023-05-18T02:43:11;102099.63;;;16.05;56.77
53635;BME280;39542;-34.932;138.594;2023-05-18T02:43:46;102096.38;;;16.06;56.80
53635;BME280;39542;-34.932;138.594;2023-05-18T02:44:20;102096.69;;;16.05;56.79
53635;BME280;39542;-34.932;138.594;2023-05-18T02:44:54;102095.11;;;16.12;56.67
53635;BME280;39542;-34.932;138.594;2023-05-18T02:45:28;102093.89;;;16.09;56.67
53635;BME280;39542;-34.932;138.594;2023-05-18T02:46:03;102093.41;;;16.09;56.71
53635;BME280;39542;-34.932;138.594;2023-05-18T02:46:37;102091.71;;;16.09;56.71
53635;BME280;39542;-34.932;138.594;2023-05-18T02:47:11;102089.84;;;16.07;56.77
53635;BME280;39542;-34.932;138.594;2023-05-18T02:47:46;102089.08;;;16.10;56.71
53635;BME280;39542;-34.932;138.594;2023-05-18T02:48:20;102091.76;;;16.08;56.73
53635;BME280;39542;-34.932;138.594;2023-05-18T02:48:54;102087.85;;;16.09;56.72
53635;BME280;39542;-34.932;138.594;2023-05-18T02:49:29;102087.76;;;16.05;56.85
53635;BME280;39542;-34.932;138.594;2023-05-18T02:50:04;102085.12;;;16.09;56.79
53635;BME280;39542;-34.932;138.594;2023-05-18T02:50:38;102085.00;;;16.10;56.68
53635;BME280;39542;-34.932;138.594;2023-05-18T02:51:12;102080.24;;;16.11;56.64
53635;BME280;39542;-34.932;138.594;2023-05-18T02:51:46;102076.90;;;16.11;56.69
53635;BME280;39542;-34.932;138.594;2023-05-18T02:52:21;102078.40;;;16.08;56.78
53635;BME280;39542;-34.932;138.594;2023-05-18T02:52:55;102072.93;;;16.09;56.75
53635;BME280;39542;-34.932;138.594;2023-05-18T02:53:29;102074.44;;;16.11;56.74
53635;BME280;39542;-34.932;138.594;2023-05-18T02:54:04;102071.23;;;16.13;56.67
53635;BME280;39542;-34.932;138.594;2023-05-18T02:54:38;102072.23;;;16.12;56.68
53635;BME280;39542;-34.932;138.594;2023-05-18T02:55:13;102072.74;;;16.12;56.69
53635;BME280;39542;-34.932;138.594;2023-05-18T02:55:48;102070.61;;;16.12;56.70
53635;BME280;39542;-34.932;138.594;2023-05-18T02:56:22;102070.51;;;16.11;56.72
53635;BME280;39542;-34.932;138.594;2023-05-18T02:56:56;102070.37;;;16.13;56.67
53635;BME280;39542;-34.932;138.594;2023-05-18T02:57:30;102068.90;;;16.10;56.75
53635;BME280;39542;-34.932;138.594;2023-05-18T02:58:04;102068.99;;;16.07;56.78
53635;BME280;39542;-34.932;138.594;2023-05-18T02:58:39;102064.03;;;16.11;56.76
53635;BME280;39542;-34.932;138.594;2023-05-18T02:59:13;102065.09;;;16.13;56.74
53635;BME280;39542;-34.932;138.594;2023-05-18T02:59:47;102065.09;;;16.10;56.73